createdAt,value
2019-03-05T00:01:38.832Z,7.40
2019-03-05T00:07:47.663Z,7.30
2019-03-05T00:17:46.923Z,7.20
2019-03-05T00:20:47.626Z,7.20
2019-03-05T00:26:32.214Z,6.90
2019-03-05T00:29:33.299Z,6.90
2019-03-05T00:32:34.075Z,6.90
2019-03-05T00:35:34.750Z,7.00
2019-03-05T00:38:35.223Z,6.80
2019-03-05T00:41:36.180Z,6.80
2019-03-05T00:44:36.847Z,6.80
2019-03-05T00:47:37.626Z,6.80
2019-03-05T00:50:38.554Z,6.80
2019-03-05T00:53:39.219Z,6.80
2019-03-05T00:56:40.015Z,6.70
2019-03-05T00:59:40.678Z,6.70
2019-03-05T01:02:41.178Z,6.70
2019-03-05T01:05:42.345Z,6.60
2019-03-05T01:08:43.286Z,6.70
2019-03-05T01:11:47.228Z,6.70
2019-03-05T01:14:46.646Z,6.70
2019-03-05T01:17:46.192Z,6.70
2019-03-05T01:23:30.777Z,6.70
2019-03-05T01:26:31.883Z,6.70
2019-03-05T01:32:19.616Z,6.70
2019-03-05T01:38:09.726Z,6.80
2019-03-05T01:43:54.259Z,6.90
2019-03-05T01:46:55.094Z,6.90
2019-03-05T01:49:56.487Z,6.90
2019-03-05T01:52:57.342Z,6.90
2019-03-05T01:55:57.872Z,7.00
2019-03-05T01:58:58.439Z,7.00
2019-03-05T02:01:59.286Z,6.90
2019-03-05T02:04:59.860Z,7.00
2019-03-05T02:08:00.580Z,7.00
2019-03-05T02:11:01.696Z,7.00
2019-03-05T02:14:02.232Z,7.00
2019-03-05T02:19:46.723Z,7.00
2019-03-05T02:22:47.207Z,7.00
2019-03-05T02:31:56.007Z,7.00
2019-03-05T02:34:57.319Z,7.00
2019-03-05T02:41:08.137Z,7.00
2019-03-05T02:47:19.569Z,7.00
2019-03-05T02:50:20.483Z,7.10
2019-03-05T02:56:31.074Z,7.10
2019-03-05T02:59:31.800Z,7.10
2019-03-05T03:02:52.030Z,7.10
2019-03-05T03:05:52.638Z,7.10
2019-03-05T03:08:53.163Z,7.20
2019-03-05T03:11:54.163Z,7.20
2019-03-05T03:14:54.806Z,7.20
2019-03-05T03:17:55.354Z,7.20
2019-03-05T03:20:55.900Z,7.20
2019-03-05T03:23:56.488Z,7.20
2019-03-05T03:26:57.504Z,7.20
2019-03-05T03:29:58.149Z,7.20
2019-03-05T03:32:59.460Z,7.20
2019-03-05T03:36:00.226Z,7.10
2019-03-05T03:41:44.467Z,7.10
2019-03-05T03:44:45.159Z,7.20
2019-03-05T03:47:44.555Z,7.10
2019-03-05T03:50:49.084Z,7.10
2019-03-05T03:54:08.760Z,7.10
2019-03-05T04:00:34.467Z,7.10
2019-03-05T04:06:14.245Z,7.20
2019-03-05T04:09:15.575Z,7.10
2019-03-05T04:12:16.117Z,7.10
2019-03-05T04:15:16.807Z,7.10
2019-03-05T04:18:18.169Z,7.10
2019-03-05T04:21:20.014Z,7.10
2019-03-05T04:24:21.100Z,7.00
2019-03-05T04:27:21.951Z,7.00
2019-03-05T04:30:22.514Z,7.00
2019-03-05T04:33:23.200Z,6.90
2019-03-05T04:36:23.728Z,7.00
2019-03-05T04:42:10.153Z,7.00
2019-03-05T04:45:16.367Z,7.00
2019-03-05T04:48:16.944Z,7.10
2019-03-05T04:54:33.727Z,7.10
2019-03-05T04:57:34.475Z,7.10
2019-03-05T05:00:34.999Z,7.10
2019-03-05T05:03:35.847Z,7.10
2019-03-05T05:09:46.062Z,7.00
2019-03-05T05:16:15.294Z,6.90
2019-03-05T05:19:15.902Z,6.90
2019-03-05T05:22:17.014Z,6.90
2019-03-05T05:25:17.750Z,6.80
2019-03-05T05:28:18.524Z,6.70
2019-03-05T05:31:19.854Z,6.70
2019-03-05T05:34:20.492Z,6.70
2019-03-05T05:37:21.087Z,6.70
2019-03-05T05:43:00.628Z,6.70
2019-03-05T05:46:01.700Z,6.60
2019-03-05T05:49:02.446Z,6.50
2019-03-05T05:52:03.119Z,6.40
2019-03-05T05:55:03.850Z,6.40
2019-03-05T05:58:04.668Z,6.40
2019-03-05T06:01:09.006Z,6.40
2019-03-05T06:04:10.088Z,6.30
2019-03-05T06:09:49.910Z,6.30
2019-03-05T06:12:50.553Z,6.20
2019-03-05T06:15:51.303Z,6.30
2019-03-05T06:18:52.103Z,6.20
2019-03-05T06:21:52.871Z,6.20
2019-03-05T06:31:28.109Z,6.40
2019-03-05T06:34:28.632Z,6.40
2019-03-05T06:40:13.042Z,6.40
2019-03-05T06:43:13.815Z,6.40
2019-03-05T06:49:13.955Z,6.50
2019-03-05T06:52:14.582Z,6.50
2019-03-05T06:55:15.130Z,6.50
2019-03-05T06:58:16.426Z,6.50
2019-03-05T07:01:17.194Z,6.50
2019-03-05T07:04:17.834Z,6.50
2019-03-05T07:07:18.435Z,6.50
2019-03-05T07:10:19.276Z,6.60
2019-03-05T07:13:19.902Z,6.70
2019-03-05T07:16:21.172Z,6.80
2019-03-05T07:19:21.728Z,6.80
2019-03-05T07:28:15.790Z,6.90
2019-03-05T07:31:16.606Z,6.80
2019-03-05T07:36:56.230Z,6.80
2019-03-05T07:39:57.278Z,6.80
2019-03-05T07:42:58.161Z,6.80
2019-03-05T07:45:58.775Z,6.80
2019-03-05T07:48:59.711Z,6.80
2019-03-05T07:52:00.627Z,6.80
2019-03-05T07:57:44.700Z,6.90
2019-03-05T08:00:45.291Z,6.90
2019-03-05T08:06:28.232Z,7.00
2019-03-05T08:13:08.599Z,7.00
2019-03-05T08:16:28.328Z,7.00
2019-03-05T08:25:37.443Z,7.10
2019-03-05T08:32:02.940Z,7.20
2019-03-05T08:38:01.859Z,7.20
2019-03-05T08:51:21.584Z,7.30
2019-03-05T08:54:22.929Z,7.30
2019-03-05T09:00:31.973Z,7.50
2019-03-05T09:03:37.244Z,7.50
2019-03-05T09:06:38.533Z,7.50
2019-03-05T09:09:39.050Z,7.50
2019-03-05T09:12:42.543Z,7.40
2019-03-05T09:15:43.824Z,7.40
2019-03-05T09:21:50.475Z,7.20
2019-03-05T09:24:50.917Z,7.20
2019-03-05T09:27:50.440Z,7.20
2019-03-05T09:34:30.583Z,7.30
2019-03-05T09:40:56.598Z,7.60
2019-03-05T09:44:16.094Z,7.90
2019-03-05T09:49:55.979Z,7.70
2019-03-05T09:55:36.216Z,7.80
2019-03-05T09:58:37.254Z,7.80
2019-03-05T10:07:39.566Z,7.80
2019-03-05T10:10:39.292Z,7.80
2019-03-05T10:16:18.731Z,8.00
2019-03-05T10:19:19.275Z,8.20
2019-03-05T10:22:19.020Z,8.30
2019-03-05T10:25:20.274Z,8.40
2019-03-05T10:28:21.042Z,8.50
2019-03-05T10:31:29.080Z,8.80
2019-03-05T10:34:48.648Z,8.60
2019-03-05T10:40:28.415Z,8.50
2019-03-05T10:43:29.207Z,8.40
2019-03-05T10:46:33.347Z,8.30
2019-03-05T10:49:34.656Z,8.10
2019-03-05T10:52:35.743Z,7.80
2019-03-05T10:59:00.022Z,7.60
2019-03-05T11:02:00.941Z,7.60
2019-03-05T11:08:40.753Z,8.10
2019-03-05T11:11:44.507Z,8.30
2019-03-05T11:17:28.919Z,8.70
2019-03-05T11:24:13.287Z,8.50
2019-03-05T11:27:13.830Z,8.80
2019-03-05T11:32:58.347Z,8.60
2019-03-05T11:35:59.055Z,8.40
2019-03-05T11:38:58.190Z,8.30
2019-03-05T11:45:07.139Z,8.10
2019-03-05T11:48:00.998Z,7.90
2019-03-05T11:51:02.203Z,8.10
2019-03-05T11:54:02.743Z,8.50
2019-03-05T12:00:43.400Z,8.30
2019-03-05T12:03:44.207Z,8.30
2019-03-05T12:06:45.390Z,8.50
2019-03-05T12:09:46.014Z,8.50
2019-03-05T12:15:25.647Z,8.50
2019-03-05T12:18:26.576Z,8.50
2019-03-05T12:21:27.168Z,8.60
2019-03-05T12:24:27.712Z,8.70
2019-03-05T12:27:28.595Z,8.70
2019-03-05T12:30:28.128Z,8.80
2019-03-05T12:33:27.739Z,8.80
2019-03-05T12:36:29.114Z,8.80
2019-03-05T12:39:30.035Z,8.80
2019-03-05T12:42:31.031Z,8.80
2019-03-05T12:45:31.926Z,8.80
2019-03-05T12:58:43.923Z,8.90
2019-03-05T13:11:42.455Z,9.40
2019-03-05T13:14:46.300Z,9.40
2019-03-05T13:17:51.599Z,9.60
2019-03-05T13:20:54.399Z,10.00
2019-03-05T13:23:54.085Z,10.30
2019-03-05T13:29:57.942Z,9.70
2019-03-05T13:32:59.020Z,9.70
2019-03-05T13:35:58.006Z,9.70
2019-03-05T13:39:04.623Z,9.50
2019-03-05T13:45:10.271Z,9.70
2019-03-05T13:54:01.547Z,10.10
2019-03-05T13:57:02.487Z,9.90
2019-03-05T14:00:03.298Z,10.00
2019-03-05T14:09:32.183Z,10.00
2019-03-05T14:12:31.449Z,10.10
2019-03-05T14:15:31.123Z,9.90
2019-03-05T14:21:39.169Z,9.80
2019-03-05T14:28:12.109Z,10.00
2019-03-05T14:34:43.721Z,10.20
2019-03-05T14:38:10.978Z,10.40
2019-03-05T14:41:10.417Z,10.30
2019-03-05T14:44:09.603Z,10.40
2019-03-05T14:47:10.183Z,10.40
2019-03-05T14:50:15.691Z,10.60
2019-03-05T14:53:40.495Z,10.60
2019-03-05T14:56:41.156Z,10.60
2019-03-05T14:59:42.377Z,10.70
2019-03-05T15:08:55.530Z,10.60
2019-03-05T15:15:12.492Z,10.30
2019-03-05T15:18:11.852Z,10.20
2019-03-05T15:21:12.563Z,10.30
2019-03-05T15:26:56.726Z,10.00
2019-03-05T15:32:36.150Z,9.90
2019-03-05T15:35:35.643Z,10.00
2019-03-05T15:38:35.168Z,10.20
2019-03-05T15:41:45.753Z,10.10
2019-03-05T15:48:20.755Z,10.40
2019-03-05T15:51:21.758Z,10.60
2019-03-05T15:54:22.568Z,10.90
2019-03-05T15:57:26.313Z,11.30
2019-03-05T16:04:05.676Z,11.30
2019-03-05T16:08:00.829Z,11.10
2019-03-05T16:10:09.028Z,11.20
2019-03-05T16:13:09.716Z,11.40
2019-03-05T16:18:54.430Z,11.00
2019-03-05T16:21:54.931Z,10.70
2019-03-05T16:24:55.603Z,10.40
2019-03-05T16:27:57.276Z,10.30
2019-03-05T16:31:21.982Z,10.10
2019-03-05T16:34:40.597Z,10.20
2019-03-05T16:37:42.655Z,10.10
2019-03-05T16:44:03.512Z,10.20
2019-03-05T16:50:42.841Z,10.00
2019-03-05T16:54:07.469Z,9.90
2019-03-05T17:00:21.775Z,9.80
2019-03-05T17:10:19.269Z,9.60
2019-03-05T17:13:24.708Z,9.60
2019-03-05T17:23:27.854Z,9.40
2019-03-05T17:26:29.340Z,9.40
2019-03-05T17:29:30.168Z,9.40
2019-03-05T17:35:15.824Z,9.30
2019-03-05T17:41:55.887Z,9.20
2019-03-05T17:44:56.707Z,9.30
2019-03-05T17:51:36.242Z,9.20
2019-03-05T17:54:37.210Z,9.20
2019-03-05T17:57:37.843Z,9.20
2019-03-05T18:00:39.455Z,9.20
2019-03-05T18:06:24.107Z,9.10
2019-03-05T18:09:24.950Z,9.00
2019-03-05T18:12:25.750Z,8.90
2019-03-05T18:15:28.697Z,8.90
2019-03-05T18:21:14.332Z,8.90
2019-03-05T18:27:04.358Z,8.80
2019-03-05T18:30:08.373Z,8.80
2019-03-05T18:35:52.612Z,8.60
2019-03-05T18:41:36.632Z,8.60
2019-03-05T18:47:16.311Z,8.50
2019-03-05T18:50:15.599Z,8.50
2019-03-05T18:53:16.326Z,8.50
2019-03-05T18:56:18.152Z,8.40
2019-03-05T18:59:17.695Z,8.40
2019-03-05T19:02:18.215Z,8.30
2019-03-05T19:05:18.993Z,8.40
2019-03-05T19:15:24.567Z,8.20
2019-03-05T19:18:25.761Z,8.20
2019-03-05T19:21:26.480Z,8.30
2019-03-05T19:27:11.162Z,8.20
2019-03-05T19:33:52.578Z,8.10
2019-03-05T19:36:53.171Z,8.10
2019-03-05T19:39:54.093Z,8.10
2019-03-05T19:42:55.099Z,8.00
2019-03-05T19:45:55.706Z,8.00
2019-03-05T19:49:01.328Z,8.00
2019-03-05T19:52:02.098Z,8.00
2019-03-05T19:55:01.725Z,8.00
2019-03-05T19:58:02.408Z,7.90
2019-03-05T20:01:08.622Z,7.90
2019-03-05T20:04:11.959Z,7.90
2019-03-05T20:07:16.127Z,7.80
2019-03-05T20:10:16.028Z,7.80
2019-03-05T20:13:20.372Z,7.90
2019-03-05T20:16:19.875Z,7.80
2019-03-05T20:19:21.218Z,7.80
2019-03-05T20:22:21.917Z,7.80
2019-03-05T20:25:23.159Z,7.70
2019-03-05T20:28:24.810Z,7.70
2019-03-05T20:31:26.102Z,7.70
2019-03-05T20:34:26.912Z,7.60
2019-03-05T20:37:28.495Z,7.70
2019-03-05T20:43:12.810Z,7.60
2019-03-05T20:46:13.642Z,7.60
2019-03-05T20:49:14.347Z,7.60
2019-03-05T20:52:34.716Z,7.70
2019-03-05T20:55:35.867Z,7.60
2019-03-05T20:58:36.472Z,7.50
2019-03-05T21:01:37.718Z,7.50
2019-03-05T21:04:38.527Z,7.50
2019-03-05T21:13:51.827Z,7.50
2019-03-05T21:19:31.543Z,7.50
2019-03-05T21:22:31.571Z,7.40
2019-03-05T21:25:32.867Z,7.40
2019-03-05T21:28:33.570Z,7.40
2019-03-05T21:31:39.091Z,7.30
2019-03-05T21:34:39.030Z,7.30
2019-03-05T21:37:40.340Z,7.40
2019-03-05T21:44:20.451Z,7.20
2019-03-05T21:50:06.639Z,7.10
2019-03-05T21:53:08.186Z,7.00
2019-03-05T21:56:09.032Z,7.00
2019-03-05T21:59:09.829Z,6.90
2019-03-05T22:02:11.225Z,6.90
2019-03-05T22:05:11.950Z,6.90
2019-03-05T22:08:11.661Z,6.80
2019-03-05T22:11:12.946Z,6.80
2019-03-05T22:14:13.645Z,6.90
2019-03-05T22:20:53.567Z,6.80
2019-03-05T22:23:54.175Z,6.80
2019-03-05T22:26:55.360Z,6.70
2019-03-05T22:29:56.122Z,6.60
2019-03-05T22:35:41.095Z,6.60
2019-03-05T22:38:41.678Z,6.60
2019-03-05T22:41:42.697Z,6.60
2019-03-05T22:44:43.542Z,6.60
2019-03-05T22:47:44.463Z,6.50
2019-03-05T22:50:45.736Z,6.50
2019-03-05T22:56:30.451Z,6.50
2019-03-05T22:59:31.864Z,6.60
2019-03-05T23:05:16.692Z,6.60
2019-03-05T23:08:18.213Z,6.60
2019-03-05T23:11:18.808Z,6.60
2019-03-05T23:14:20.013Z,6.60
2019-03-05T23:19:59.806Z,6.60
2019-03-05T23:22:59.545Z,6.60
2019-03-05T23:26:00.888Z,6.60
2019-03-05T23:29:02.226Z,6.60
2019-03-05T23:32:03.064Z,6.60
2019-03-05T23:35:04.231Z,6.60
2019-03-05T23:38:04.906Z,6.60
2019-03-05T23:41:05.687Z,6.70
2019-03-05T23:44:06.519Z,6.60
2019-03-05T23:50:36.301Z,6.60
2019-03-05T23:56:15.907Z,6.50
2019-03-05T23:59:16.729Z,6.50
